sensor_id;sensor_type;location;lat;lon;timestamp;P1;durP1;ratioP1;P2;durP2;ratioP2
45848;SDS011;31567;54.600;9.842;2022-11-15T00:00:37;55.90;;;33.42;;
45848;SDS011;31567;54.600;9.842;2022-11-15T00:04:16;52.75;;;32.97;;
45848;SDS011;31567;54.600;9.842;2022-11-15T00:07:56;55.67;;;32.88;;
45848;SDS011;31567;54.600;9.842;2022-11-15T00:11:36;60.53;;;32.78;;
45848;SDS011;31567;54.600;9.842;2022-11-15T00:15:15;56.72;;;33.05;;
45848;SDS011;31567;54.600;9.842;2022-11-15T00:18:55;57.72;;;33.92;;
45848;SDS011;31567;54.600;9.842;2022-11-15T00:22:36;58.65;;;33.72;;
45848;SDS011;31567;54.600;9.842;2022-11-15T00:26:15;60.58;;;35.17;;
45848;SDS011;31567;54.600;9.842;2022-11-15T00:29:55;62.83;;;34.65;;
45848;SDS011;31567;54.600;9.842;2022-11-15T00:33:35;59.45;;;33.83;;
45848;SDS011;31567;54.600;9.842;2022-11-15T00:37:14;59.78;;;34.92;;
45848;SDS011;31567;54.600;9.842;2022-11-15T00:40:54;61.55;;;35.47;;
45848;SDS011;31567;54.600;9.842;2022-11-15T00:44:33;62.53;;;35.58;;
45848;SDS011;31567;54.600;9.842;2022-11-15T00:48:13;64.55;;;36.35;;
45848;SDS011;31567;54.600;9.842;2022-11-15T00:51:52;63.30;;;37.00;;
45848;SDS011;31567;54.600;9.842;2022-11-15T00:55:32;63.22;;;34.85;;
45848;SDS011;31567;54.600;9.842;2022-11-15T00:59:11;60.08;;;35.45;;
45848;SDS011;31567;54.600;9.842;2022-11-15T01:02:51;61.00;;;34.33;;
45848;SDS011;31567;54.600;9.842;2022-11-15T01:06:30;61.22;;;35.38;;
45848;SDS011;31567;54.600;9.842;2022-11-15T01:10:10;58.45;;;33.80;;
45848;SDS011;31567;54.600;9.842;2022-11-15T01:13:50;62.08;;;35.40;;
45848;SDS011;31567;54.600;9.842;2022-11-15T01:17:30;60.65;;;36.60;;
45848;SDS011;31567;54.600;9.842;2022-11-15T01:21:11;59.95;;;34.63;;
45848;SDS011;31567;54.600;9.842;2022-11-15T01:24:55;56.25;;;32.97;;
45848;SDS011;31567;54.600;9.842;2022-11-15T01:28:36;49.65;;;32.22;;
45848;SDS011;31567;54.600;9.842;2022-11-15T01:32:16;49.42;;;30.75;;
45848;SDS011;31567;54.600;9.842;2022-11-15T01:35:56;47.08;;;30.27;;
45848;SDS011;31567;54.600;9.842;2022-11-15T01:39:36;51.67;;;30.33;;
45848;SDS011;31567;54.600;9.842;2022-11-15T01:43:24;47.75;;;30.80;;
45848;SDS011;31567;54.600;9.842;2022-11-15T01:47:22;48.03;;;31.27;;
45848;SDS011;31567;54.600;9.842;2022-11-15T01:51:06;47.72;;;30.75;;
45848;SDS011;31567;54.600;9.842;2022-11-15T01:54:51;49.60;;;31.85;;
45848;SDS011;31567;54.600;9.842;2022-11-15T01:58:37;50.92;;;31.20;;
45848;SDS011;31567;54.600;9.842;2022-11-15T02:02:18;48.47;;;31.30;;
45848;SDS011;31567;54.600;9.842;2022-11-15T02:05:57;48.75;;;31.23;;
45848;SDS011;31567;54.600;9.842;2022-11-15T02:09:37;47.83;;;29.42;;
45848;SDS011;31567;54.600;9.842;2022-11-15T02:13:18;48.75;;;30.45;;
45848;SDS011;31567;54.600;9.842;2022-11-15T02:29:19;52.75;;;31.25;;
45848;SDS011;31567;54.600;9.842;2022-11-15T02:37:15;48.80;;;30.38;;
45848;SDS011;31567;54.600;9.842;2022-11-15T02:41:16;49.80;;;31.67;;
45848;SDS011;31567;54.600;9.842;2022-11-15T02:45:10;46.75;;;30.30;;
45848;SDS011;31567;54.600;9.842;2022-11-15T02:48:55;48.10;;;30.88;;
45848;SDS011;31567;54.600;9.842;2022-11-15T02:52:35;49.13;;;30.17;;
45848;SDS011;31567;54.600;9.842;2022-11-15T02:56:14;47.60;;;29.73;;
45848;SDS011;31567;54.600;9.842;2022-11-15T03:03:38;42.08;;;28.63;;
45848;SDS011;31567;54.600;9.842;2022-11-15T03:11:15;43.80;;;29.20;;
45848;SDS011;31567;54.600;9.842;2022-11-15T03:15:04;48.33;;;31.60;;
45848;SDS011;31567;54.600;9.842;2022-11-15T03:18:52;46.47;;;30.45;;
45848;SDS011;31567;54.600;9.842;2022-11-15T03:22:41;44.90;;;28.40;;
45848;SDS011;31567;54.600;9.842;2022-11-15T03:26:23;48.70;;;30.63;;
45848;SDS011;31567;54.600;9.842;2022-11-15T03:30:06;44.30;;;29.25;;
45848;SDS011;31567;54.600;9.842;2022-11-15T03:33:47;48.10;;;29.35;;
45848;SDS011;31567;54.600;9.842;2022-11-15T03:37:30;44.97;;;28.23;;
45848;SDS011;31567;54.600;9.842;2022-11-15T03:49:03;47.53;;;29.63;;
45848;SDS011;31567;54.600;9.842;2022-11-15T03:52:48;45.45;;;28.80;;
45848;SDS011;31567;54.600;9.842;2022-11-15T03:56:29;46.08;;;28.33;;
45848;SDS011;31567;54.600;9.842;2022-11-15T04:00:08;39.42;;;27.02;;
45848;SDS011;31567;54.600;9.842;2022-11-15T04:03:48;40.97;;;26.75;;
45848;SDS011;31567;54.600;9.842;2022-11-15T04:07:28;42.60;;;27.67;;
45848;SDS011;31567;54.600;9.842;2022-11-15T04:11:08;41.28;;;27.35;;
45848;SDS011;31567;54.600;9.842;2022-11-15T04:14:47;41.28;;;26.55;;
45848;SDS011;31567;54.600;9.842;2022-11-15T04:18:45;42.20;;;26.35;;
45848;SDS011;31567;54.600;9.842;2022-11-15T04:22:45;40.58;;;27.17;;
45848;SDS011;31567;54.600;9.842;2022-11-15T04:26:43;43.60;;;27.40;;
45848;SDS011;31567;54.600;9.842;2022-11-15T04:30:23;41.47;;;27.52;;
45848;SDS011;31567;54.600;9.842;2022-11-15T04:34:02;43.55;;;29.17;;
45848;SDS011;31567;54.600;9.842;2022-11-15T04:37:42;44.40;;;28.85;;
45848;SDS011;31567;54.600;9.842;2022-11-15T04:41:21;44.42;;;27.98;;
45848;SDS011;31567;54.600;9.842;2022-11-15T04:45:01;46.25;;;27.75;;
45848;SDS011;31567;54.600;9.842;2022-11-15T04:48:40;40.80;;;27.67;;
45848;SDS011;31567;54.600;9.842;2022-11-15T04:52:20;42.90;;;27.17;;
45848;SDS011;31567;54.600;9.842;2022-11-15T04:55:59;44.10;;;28.00;;
45848;SDS011;31567;54.600;9.842;2022-11-15T04:59:39;44.53;;;28.65;;
45848;SDS011;31567;54.600;9.842;2022-11-15T05:03:18;41.70;;;27.48;;
45848;SDS011;31567;54.600;9.842;2022-11-15T05:07:16;43.80;;;27.42;;
45848;SDS011;31567;54.600;9.842;2022-11-15T05:10:56;41.80;;;26.80;;
45848;SDS011;31567;54.600;9.842;2022-11-15T05:14:35;46.08;;;28.00;;
45848;SDS011;31567;54.600;9.842;2022-11-15T05:18:15;43.63;;;28.02;;
45848;SDS011;31567;54.600;9.842;2022-11-15T05:21:55;42.83;;;27.95;;
45848;SDS011;31567;54.600;9.842;2022-11-15T05:25:35;44.55;;;27.55;;
45848;SDS011;31567;54.600;9.842;2022-11-15T05:29:15;42.35;;;28.48;;
45848;SDS011;31567;54.600;9.842;2022-11-15T05:32:55;48.72;;;28.85;;
45848;SDS011;31567;54.600;9.842;2022-11-15T05:36:40;44.75;;;28.40;;
45848;SDS011;31567;54.600;9.842;2022-11-15T05:40:21;43.53;;;27.73;;
45848;SDS011;31567;54.600;9.842;2022-11-15T05:44:01;49.70;;;28.27;;
45848;SDS011;31567;54.600;9.842;2022-11-15T05:47:44;44.35;;;27.13;;
45848;SDS011;31567;54.600;9.842;2022-11-15T05:51:25;41.85;;;27.73;;
45848;SDS011;31567;54.600;9.842;2022-11-15T05:55:07;42.55;;;28.23;;
45848;SDS011;31567;54.600;9.842;2022-11-15T05:58:48;43.53;;;28.40;;
45848;SDS011;31567;54.600;9.842;2022-11-15T06:02:28;42.95;;;28.35;;
45848;SDS011;31567;54.600;9.842;2022-11-15T06:06:07;44.13;;;27.38;;
45848;SDS011;31567;54.600;9.842;2022-11-15T06:09:47;44.08;;;27.58;;
45848;SDS011;31567;54.600;9.842;2022-11-15T06:13:26;42.05;;;26.55;;
45848;SDS011;31567;54.600;9.842;2022-11-15T06:17:06;46.80;;;27.73;;
45848;SDS011;31567;54.600;9.842;2022-11-15T06:20:45;44.97;;;26.80;;
45848;SDS011;31567;54.600;9.842;2022-11-15T06:24:25;40.58;;;25.98;;
45848;SDS011;31567;54.600;9.842;2022-11-15T06:28:04;43.03;;;27.58;;
45848;SDS011;31567;54.600;9.842;2022-11-15T06:31:44;44.75;;;28.58;;
45848;SDS011;31567;54.600;9.842;2022-11-15T06:35:23;38.78;;;26.05;;
45848;SDS011;31567;54.600;9.842;2022-11-15T06:39:03;40.35;;;27.42;;
45848;SDS011;31567;54.600;9.842;2022-11-15T06:42:43;45.00;;;28.10;;
45848;SDS011;31567;54.600;9.842;2022-11-15T06:46:23;41.05;;;27.67;;
45848;SDS011;31567;54.600;9.842;2022-11-15T06:50:02;39.72;;;26.48;;
45848;SDS011;31567;54.600;9.842;2022-11-15T06:53:42;40.22;;;27.52;;
45848;SDS011;31567;54.600;9.842;2022-11-15T06:57:22;39.97;;;26.98;;
45848;SDS011;31567;54.600;9.842;2022-11-15T07:01:05;38.90;;;24.85;;
45848;SDS011;31567;54.600;9.842;2022-11-15T07:04:46;40.45;;;26.70;;
45848;SDS011;31567;54.600;9.842;2022-11-15T07:08:27;39.83;;;26.50;;
45848;SDS011;31567;54.600;9.842;2022-11-15T07:12:07;41.25;;;27.23;;
45848;SDS011;31567;54.600;9.842;2022-11-15T07:15:46;39.30;;;25.85;;
45848;SDS011;31567;54.600;9.842;2022-11-15T07:19:26;36.13;;;24.73;;
45848;SDS011;31567;54.600;9.842;2022-11-15T07:23:06;42.75;;;25.85;;
45848;SDS011;31567;54.600;9.842;2022-11-15T07:26:45;36.45;;;25.17;;
45848;SDS011;31567;54.600;9.842;2022-11-15T07:30:25;40.08;;;26.42;;
45848;SDS011;31567;54.600;9.842;2022-11-15T07:34:05;39.90;;;25.50;;
45848;SDS011;31567;54.600;9.842;2022-11-15T07:37:52;37.42;;;25.73;;
45848;SDS011;31567;54.600;9.842;2022-11-15T07:41:32;39.60;;;27.58;;
45848;SDS011;31567;54.600;9.842;2022-11-15T07:45:12;44.40;;;26.60;;
45848;SDS011;31567;54.600;9.842;2022-11-15T07:48:52;43.38;;;26.75;;
45848;SDS011;31567;54.600;9.842;2022-11-15T07:52:31;36.78;;;26.05;;
45848;SDS011;31567;54.600;9.842;2022-11-15T07:56:11;37.88;;;24.33;;
45848;SDS011;31567;54.600;9.842;2022-11-15T07:59:51;32.58;;;23.42;;
45848;SDS011;31567;54.600;9.842;2022-11-15T08:03:31;33.22;;;22.42;;
45848;SDS011;31567;54.600;9.842;2022-11-15T08:07:11;42.92;;;22.92;;
45848;SDS011;31567;54.600;9.842;2022-11-15T08:10:50;31.55;;;22.30;;
45848;SDS011;31567;54.600;9.842;2022-11-15T08:14:30;33.10;;;22.77;;
45848;SDS011;31567;54.600;9.842;2022-11-15T08:18:11;32.80;;;22.00;;
45848;SDS011;31567;54.600;9.842;2022-11-15T08:21:52;29.73;;;20.58;;
45848;SDS011;31567;54.600;9.842;2022-11-15T08:25:32;28.83;;;21.08;;
45848;SDS011;31567;54.600;9.842;2022-11-15T08:29:13;28.63;;;20.35;;
45848;SDS011;31567;54.600;9.842;2022-11-15T08:32:53;30.25;;;21.17;;
45848;SDS011;31567;54.600;9.842;2022-11-15T08:36:35;31.50;;;20.23;;
45848;SDS011;31567;54.600;9.842;2022-11-15T08:40:15;29.73;;;19.73;;
45848;SDS011;31567;54.600;9.842;2022-11-15T08:43:55;31.15;;;20.65;;
45848;SDS011;31567;54.600;9.842;2022-11-15T08:47:34;30.52;;;21.52;;
45848;SDS011;31567;54.600;9.842;2022-11-15T08:51:14;30.50;;;21.27;;
45848;SDS011;31567;54.600;9.842;2022-11-15T08:54:54;27.42;;;20.45;;
45848;SDS011;31567;54.600;9.842;2022-11-15T08:58:33;28.98;;;20.80;;
45848;SDS011;31567;54.600;9.842;2022-11-15T09:02:13;27.48;;;20.05;;
45848;SDS011;31567;54.600;9.842;2022-11-15T09:05:54;28.95;;;20.67;;
45848;SDS011;31567;54.600;9.842;2022-11-15T09:09:37;27.30;;;20.58;;
45848;SDS011;31567;54.600;9.842;2022-11-15T09:13:17;28.23;;;19.50;;
45848;SDS011;31567;54.600;9.842;2022-11-15T09:16:56;27.73;;;20.02;;
45848;SDS011;31567;54.600;9.842;2022-11-15T09:20:37;27.08;;;20.33;;
45848;SDS011;31567;54.600;9.842;2022-11-15T09:24:16;28.13;;;18.55;;
45848;SDS011;31567;54.600;9.842;2022-11-15T09:27:56;26.00;;;19.52;;
45848;SDS011;31567;54.600;9.842;2022-11-15T09:31:36;25.63;;;18.90;;
45848;SDS011;31567;54.600;9.842;2022-11-15T09:35:16;27.02;;;18.60;;
45848;SDS011;31567;54.600;9.842;2022-11-15T09:38:57;26.10;;;19.00;;
45848;SDS011;31567;54.600;9.842;2022-11-15T09:42:56;28.58;;;19.08;;
45848;SDS011;31567;54.600;9.842;2022-11-15T09:50:49;26.30;;;19.38;;
45848;SDS011;31567;54.600;9.842;2022-11-15T09:54:34;29.00;;;20.80;;
45848;SDS011;31567;54.600;9.842;2022-11-15T09:58:26;27.48;;;19.77;;
45848;SDS011;31567;54.600;9.842;2022-11-15T10:06:30;26.40;;;18.58;;
45848;SDS011;31567;54.600;9.842;2022-11-15T10:10:25;25.83;;;18.88;;
45848;SDS011;31567;54.600;9.842;2022-11-15T10:18:07;24.98;;;18.45;;
45848;SDS011;31567;54.600;9.842;2022-11-15T10:25:36;27.08;;;18.48;;
45848;SDS011;31567;54.600;9.842;2022-11-15T10:29:18;22.80;;;17.48;;
45848;SDS011;31567;54.600;9.842;2022-11-15T10:32:58;24.52;;;18.60;;
45848;SDS011;31567;54.600;9.842;2022-11-15T10:36:57;24.83;;;18.88;;
45848;SDS011;31567;54.600;9.842;2022-11-15T10:40:39;25.35;;;18.27;;
45848;SDS011;31567;54.600;9.842;2022-11-15T10:44:24;30.17;;;19.23;;
45848;SDS011;31567;54.600;9.842;2022-11-15T10:51:54;24.63;;;19.08;;
45848;SDS011;31567;54.600;9.842;2022-11-15T10:55:55;24.75;;;16.77;;
45848;SDS011;31567;54.600;9.842;2022-11-15T10:59:38;24.17;;;17.92;;
45848;SDS011;31567;54.600;9.842;2022-11-15T11:03:26;25.63;;;19.27;;
45848;SDS011;31567;54.600;9.842;2022-11-15T11:07:21;25.40;;;18.95;;
45848;SDS011;31567;54.600;9.842;2022-11-15T11:11:03;23.75;;;18.17;;
45848;SDS011;31567;54.600;9.842;2022-11-15T11:14:43;25.70;;;18.30;;
45848;SDS011;31567;54.600;9.842;2022-11-15T11:18:25;22.60;;;17.73;;
45848;SDS011;31567;54.600;9.842;2022-11-15T11:26:06;23.95;;;19.45;;
45848;SDS011;31567;54.600;9.842;2022-11-15T11:38:21;22.63;;;18.48;;
45848;SDS011;31567;54.600;9.842;2022-11-15T11:50:23;21.98;;;18.10;;
45848;SDS011;31567;54.600;9.842;2022-11-15T11:54:13;24.40;;;19.17;;
45848;SDS011;31567;54.600;9.842;2022-11-15T11:58:04;22.38;;;17.85;;
45848;SDS011;31567;54.600;9.842;2022-11-15T12:01:50;23.40;;;18.58;;
45848;SDS011;31567;54.600;9.842;2022-11-15T12:05:50;24.83;;;18.27;;
45848;SDS011;31567;54.600;9.842;2022-11-15T12:09:35;22.45;;;17.50;;
45848;SDS011;31567;54.600;9.842;2022-11-15T12:13:21;22.77;;;17.92;;
45848;SDS011;31567;54.600;9.842;2022-11-15T12:17:04;21.70;;;16.77;;
45848;SDS011;31567;54.600;9.842;2022-11-15T12:20:57;23.45;;;16.25;;
45848;SDS011;31567;54.600;9.842;2022-11-15T12:24:45;20.25;;;16.42;;
45848;SDS011;31567;54.600;9.842;2022-11-15T12:32:27;22.70;;;17.33;;
45848;SDS011;31567;54.600;9.842;2022-11-15T12:44:01;20.35;;;16.08;;
45848;SDS011;31567;54.600;9.842;2022-11-15T12:47:41;20.73;;;17.40;;
45848;SDS011;31567;54.600;9.842;2022-11-15T12:52:07;21.52;;;16.88;;
45848;SDS011;31567;54.600;9.842;2022-11-15T12:55:29;24.00;;;17.65;;
45848;SDS011;31567;54.600;9.842;2022-11-15T12:59:38;22.38;;;17.95;;
45848;SDS011;31567;54.600;9.842;2022-11-15T13:03:28;21.27;;;17.92;;
45848;SDS011;31567;54.600;9.842;2022-11-15T13:07:08;20.48;;;17.92;;
45848;SDS011;31567;54.600;9.842;2022-11-15T13:15:32;21.50;;;17.40;;
45848;SDS011;31567;54.600;9.842;2022-11-15T13:19:35;23.85;;;17.63;;
45848;SDS011;31567;54.600;9.842;2022-11-15T13:23:15;21.10;;;17.05;;
45848;SDS011;31567;54.600;9.842;2022-11-15T13:26:55;21.33;;;16.88;;
45848;SDS011;31567;54.600;9.842;2022-11-15T13:30:35;22.77;;;17.70;;
45848;SDS011;31567;54.600;9.842;2022-11-15T13:34:20;24.52;;;17.30;;
45848;SDS011;31567;54.600;9.842;2022-11-15T13:38:11;22.35;;;16.70;;
45848;SDS011;31567;54.600;9.842;2022-11-15T13:42:14;20.67;;;16.65;;
45848;SDS011;31567;54.600;9.842;2022-11-15T13:46:07;22.38;;;17.45;;
45848;SDS011;31567;54.600;9.842;2022-11-15T13:49:56;21.92;;;17.25;;
45848;SDS011;31567;54.600;9.842;2022-11-15T13:53:37;27.70;;;17.52;;
45848;SDS011;31567;54.600;9.842;2022-11-15T13:57:21;22.05;;;17.08;;
45848;SDS011;31567;54.600;9.842;2022-11-15T14:01:06;25.67;;;17.52;;
45848;SDS011;31567;54.600;9.842;2022-11-15T14:08:37;21.30;;;16.33;;
45848;SDS011;31567;54.600;9.842;2022-11-15T14:16:16;20.75;;;16.10;;
45848;SDS011;31567;54.600;9.842;2022-11-15T14:20:00;20.13;;;15.75;;
45848;SDS011;31567;54.600;9.842;2022-11-15T14:23:39;19.40;;;14.73;;
45848;SDS011;31567;54.600;9.842;2022-11-15T14:27:23;22.60;;;16.13;;
45848;SDS011;31567;54.600;9.842;2022-11-15T14:31:09;21.60;;;16.08;;
45848;SDS011;31567;54.600;9.842;2022-11-15T14:34:55;20.90;;;15.93;;
45848;SDS011;31567;54.600;9.842;2022-11-15T14:38:37;18.75;;;15.00;;
45848;SDS011;31567;54.600;9.842;2022-11-15T14:42:16;20.25;;;15.60;;
45848;SDS011;31567;54.600;9.842;2022-11-15T14:45:57;19.83;;;15.45;;
45848;SDS011;31567;54.600;9.842;2022-11-15T14:49:36;20.85;;;16.02;;
45848;SDS011;31567;54.600;9.842;2022-11-15T14:53:17;27.63;;;17.80;;
45848;SDS011;31567;54.600;9.842;2022-11-15T14:56:56;23.90;;;17.17;;
45848;SDS011;31567;54.600;9.842;2022-11-15T15:00:37;25.55;;;18.65;;
45848;SDS011;31567;54.600;9.842;2022-11-15T15:04:18;27.92;;;19.45;;
45848;SDS011;31567;54.600;9.842;2022-11-15T15:07:58;25.85;;;17.92;;
45848;SDS011;31567;54.600;9.842;2022-11-15T15:11:38;23.33;;;18.27;;
45848;SDS011;31567;54.600;9.842;2022-11-15T15:15:20;26.42;;;18.23;;
45848;SDS011;31567;54.600;9.842;2022-11-15T15:19:03;26.60;;;18.75;;
45848;SDS011;31567;54.600;9.842;2022-11-15T15:22:43;26.05;;;18.83;;
45848;SDS011;31567;54.600;9.842;2022-11-15T15:26:23;29.17;;;20.13;;
45848;SDS011;31567;54.600;9.842;2022-11-15T15:30:03;26.30;;;19.65;;
45848;SDS011;31567;54.600;9.842;2022-11-15T15:33:43;23.33;;;18.27;;
45848;SDS011;31567;54.600;9.842;2022-11-15T15:37:24;25.20;;;19.30;;
45848;SDS011;31567;54.600;9.842;2022-11-15T15:41:07;32.58;;;20.70;;
45848;SDS011;31567;54.600;9.842;2022-11-15T15:44:49;28.75;;;21.45;;
45848;SDS011;31567;54.600;9.842;2022-11-15T15:48:29;34.58;;;22.35;;
45848;SDS011;31567;54.600;9.842;2022-11-15T15:52:09;31.35;;;22.08;;
45848;SDS011;31567;54.600;9.842;2022-11-15T15:55:48;33.15;;;23.20;;
45848;SDS011;31567;54.600;9.842;2022-11-15T15:59:28;34.20;;;22.58;;
45848;SDS011;31567;54.600;9.842;2022-11-15T16:03:08;35.13;;;25.25;;
45848;SDS011;31567;54.600;9.842;2022-11-15T16:06:47;37.03;;;25.55;;
45848;SDS011;31567;54.600;9.842;2022-11-15T16:10:29;37.17;;;25.85;;
45848;SDS011;31567;54.600;9.842;2022-11-15T16:14:12;39.22;;;25.77;;
45848;SDS011;31567;54.600;9.842;2022-11-15T16:21:33;34.97;;;25.63;;
45848;SDS011;31567;54.600;9.842;2022-11-15T16:25:13;37.67;;;25.63;;
45848;SDS011;31567;54.600;9.842;2022-11-15T16:28:52;36.78;;;25.60;;
45848;SDS011;31567;54.600;9.842;2022-11-15T16:32:32;38.25;;;25.65;;
45848;SDS011;31567;54.600;9.842;2022-11-15T16:36:18;37.75;;;25.52;;
45848;SDS011;31567;54.600;9.842;2022-11-15T16:40:01;33.88;;;24.92;;
45848;SDS011;31567;54.600;9.842;2022-11-15T16:43:40;35.63;;;25.95;;
45848;SDS011;31567;54.600;9.842;2022-11-15T16:47:20;34.20;;;25.38;;
45848;SDS011;31567;54.600;9.842;2022-11-15T16:51:00;39.78;;;25.92;;
45848;SDS011;31567;54.600;9.842;2022-11-15T16:54:42;39.90;;;27.92;;
45848;SDS011;31567;54.600;9.842;2022-11-15T16:58:22;36.63;;;25.70;;
45848;SDS011;31567;54.600;9.842;2022-11-15T17:02:02;36.47;;;25.98;;
45848;SDS011;31567;54.600;9.842;2022-11-15T17:05:41;36.50;;;26.10;;
45848;SDS011;31567;54.600;9.842;2022-11-15T17:09:21;38.53;;;26.13;;
45848;SDS011;31567;54.600;9.842;2022-11-15T17:13:04;38.30;;;27.42;;
45848;SDS011;31567;54.600;9.842;2022-11-15T17:16:43;40.75;;;27.42;;
45848;SDS011;31567;54.600;9.842;2022-11-15T17:20:23;43.00;;;27.30;;
45848;SDS011;31567;54.600;9.842;2022-11-15T17:24:04;38.15;;;26.60;;
45848;SDS011;31567;54.600;9.842;2022-11-15T17:27:43;41.78;;;27.27;;
45848;SDS011;31567;54.600;9.842;2022-11-15T17:31:23;41.28;;;27.45;;
45848;SDS011;31567;54.600;9.842;2022-11-15T17:35:03;39.63;;;26.88;;
45848;SDS011;31567;54.600;9.842;2022-11-15T17:38:46;42.35;;;27.92;;
45848;SDS011;31567;54.600;9.842;2022-11-15T17:42:30;41.45;;;27.77;;
45848;SDS011;31567;54.600;9.842;2022-11-15T17:46:11;41.22;;;28.88;;
45848;SDS011;31567;54.600;9.842;2022-11-15T17:49:56;42.95;;;27.98;;
45848;SDS011;31567;54.600;9.842;2022-11-15T17:53:37;37.45;;;26.25;;
45848;SDS011;31567;54.600;9.842;2022-11-15T17:57:18;36.92;;;26.38;;
45848;SDS011;31567;54.600;9.842;2022-11-15T18:01:04;36.65;;;25.77;;
45848;SDS011;31567;54.600;9.842;2022-11-15T18:04:46;37.45;;;25.55;;
45848;SDS011;31567;54.600;9.842;2022-11-15T18:08:26;38.28;;;25.13;;
45848;SDS011;31567;54.600;9.842;2022-11-15T18:12:05;36.10;;;25.20;;
45848;SDS011;31567;54.600;9.842;2022-11-15T18:15:52;37.58;;;25.80;;
45848;SDS011;31567;54.600;9.842;2022-11-15T18:19:32;36.10;;;23.98;;
45848;SDS011;31567;54.600;9.842;2022-11-15T18:23:12;34.80;;;25.40;;
45848;SDS011;31567;54.600;9.842;2022-11-15T18:26:52;40.03;;;25.88;;
45848;SDS011;31567;54.600;9.842;2022-11-15T18:30:31;35.45;;;24.88;;
45848;SDS011;31567;54.600;9.842;2022-11-15T18:34:11;37.15;;;24.83;;
45848;SDS011;31567;54.600;9.842;2022-11-15T18:37:50;35.45;;;24.92;;
45848;SDS011;31567;54.600;9.842;2022-11-15T18:41:31;36.25;;;24.83;;
45848;SDS011;31567;54.600;9.842;2022-11-15T18:45:12;34.42;;;24.20;;
45848;SDS011;31567;54.600;9.842;2022-11-15T18:48:52;35.67;;;23.90;;
45848;SDS011;31567;54.600;9.842;2022-11-15T18:52:32;35.90;;;24.58;;
45848;SDS011;31567;54.600;9.842;2022-11-15T18:56:16;36.30;;;24.48;;
45848;SDS011;31567;54.600;9.842;2022-11-15T18:59:57;33.75;;;23.23;;
45848;SDS011;31567;54.600;9.842;2022-11-15T19:03:37;33.72;;;24.13;;
45848;SDS011;31567;54.600;9.842;2022-11-15T19:07:19;36.33;;;23.98;;
45848;SDS011;31567;54.600;9.842;2022-11-15T19:11:05;31.70;;;21.88;;
45848;SDS011;31567;54.600;9.842;2022-11-15T19:14:51;32.03;;;21.98;;
45848;SDS011;31567;54.600;9.842;2022-11-15T19:18:31;34.22;;;22.63;;
45848;SDS011;31567;54.600;9.842;2022-11-15T19:22:11;32.47;;;22.88;;
45848;SDS011;31567;54.600;9.842;2022-11-15T19:25:54;36.20;;;23.50;;
45848;SDS011;31567;54.600;9.842;2022-11-15T19:29:35;37.95;;;23.63;;
45848;SDS011;31567;54.600;9.842;2022-11-15T19:33:14;32.33;;;21.85;;
45848;SDS011;31567;54.600;9.842;2022-11-15T19:36:54;33.13;;;23.65;;
45848;SDS011;31567;54.600;9.842;2022-11-15T19:40:33;32.63;;;20.83;;
45848;SDS011;31567;54.600;9.842;2022-11-15T19:44:13;34.15;;;22.13;;
45848;SDS011;31567;54.600;9.842;2022-11-15T19:47:53;31.15;;;20.98;;
45848;SDS011;31567;54.600;9.842;2022-11-15T19:51:33;32.33;;;21.83;;
45848;SDS011;31567;54.600;9.842;2022-11-15T19:55:12;33.78;;;21.35;;
45848;SDS011;31567;54.600;9.842;2022-11-15T19:58:52;32.97;;;20.33;;
45848;SDS011;31567;54.600;9.842;2022-11-15T20:02:33;39.80;;;24.05;;
45848;SDS011;31567;54.600;9.842;2022-11-15T20:06:13;41.28;;;24.90;;
45848;SDS011;31567;54.600;9.842;2022-11-15T20:09:55;42.75;;;24.95;;
45848;SDS011;31567;54.600;9.842;2022-11-15T20:13:35;43.33;;;25.75;;
45848;SDS011;31567;54.600;9.842;2022-11-15T20:17:14;39.20;;;24.45;;
45848;SDS011;31567;54.600;9.842;2022-11-15T20:20:54;40.65;;;25.23;;
45848;SDS011;31567;54.600;9.842;2022-11-15T20:24:35;38.58;;;23.25;;
45848;SDS011;31567;54.600;9.842;2022-11-15T20:28:19;36.88;;;23.83;;
45848;SDS011;31567;54.600;9.842;2022-11-15T20:32:00;34.00;;;21.85;;
45848;SDS011;31567;54.600;9.842;2022-11-15T20:35:40;34.42;;;20.83;;
45848;SDS011;31567;54.600;9.842;2022-11-15T20:39:19;39.28;;;23.02;;
45848;SDS011;31567;54.600;9.842;2022-11-15T20:42:59;40.22;;;22.50;;
45848;SDS011;31567;54.600;9.842;2022-11-15T20:46:38;42.92;;;24.65;;
45848;SDS011;31567;54.600;9.842;2022-11-15T20:50:18;43.00;;;23.25;;
45848;SDS011;31567;54.600;9.842;2022-11-15T20:53:57;44.58;;;24.65;;
45848;SDS011;31567;54.600;9.842;2022-11-15T20:57:37;44.80;;;23.48;;
45848;SDS011;31567;54.600;9.842;2022-11-15T21:01:17;48.33;;;25.95;;
45848;SDS011;31567;54.600;9.842;2022-11-15T21:05:04;54.33;;;27.05;;
45848;SDS011;31567;54.600;9.842;2022-11-15T21:08:44;51.20;;;25.55;;
45848;SDS011;31567;54.600;9.842;2022-11-15T21:12:43;50.42;;;26.10;;
45848;SDS011;31567;54.600;9.842;2022-11-15T21:16:23;58.08;;;26.08;;
45848;SDS011;31567;54.600;9.842;2022-11-15T21:20:02;50.13;;;24.70;;
45848;SDS011;31567;54.600;9.842;2022-11-15T21:23:42;50.22;;;25.98;;
45848;SDS011;31567;54.600;9.842;2022-11-15T21:27:22;44.58;;;24.05;;
45848;SDS011;31567;54.600;9.842;2022-11-15T21:31:01;51.65;;;26.13;;
45848;SDS011;31567;54.600;9.842;2022-11-15T21:34:41;54.15;;;27.60;;
45848;SDS011;31567;54.600;9.842;2022-11-15T21:38:21;61.10;;;27.90;;
45848;SDS011;31567;54.600;9.842;2022-11-15T21:42:03;58.50;;;27.38;;
45848;SDS011;31567;54.600;9.842;2022-11-15T21:45:44;60.10;;;27.95;;
45848;SDS011;31567;54.600;9.842;2022-11-15T21:49:38;56.17;;;27.20;;
45848;SDS011;31567;54.600;9.842;2022-11-15T21:53:17;53.78;;;26.88;;
45848;SDS011;31567;54.600;9.842;2022-11-15T21:56:57;56.05;;;27.13;;
45848;SDS011;31567;54.600;9.842;2022-11-15T22:00:36;57.13;;;27.38;;
45848;SDS011;31567;54.600;9.842;2022-11-15T22:04:35;58.15;;;27.33;;
45848;SDS011;31567;54.600;9.842;2022-11-15T22:08:14;58.22;;;27.25;;
45848;SDS011;31567;54.600;9.842;2022-11-15T22:11:54;62.22;;;26.63;;
45848;SDS011;31567;54.600;9.842;2022-11-15T22:15:33;57.05;;;27.80;;
45848;SDS011;31567;54.600;9.842;2022-11-15T22:19:13;63.55;;;28.05;;
45848;SDS011;31567;54.600;9.842;2022-11-15T22:22:52;57.53;;;27.73;;
45848;SDS011;31567;54.600;9.842;2022-11-15T22:26:32;63.22;;;28.98;;
45848;SDS011;31567;54.600;9.842;2022-11-15T22:30:12;55.67;;;25.85;;
45848;SDS011;31567;54.600;9.842;2022-11-15T22:33:51;56.03;;;26.13;;
45848;SDS011;31567;54.600;9.842;2022-11-15T22:37:31;57.67;;;26.90;;
45848;SDS011;31567;54.600;9.842;2022-11-15T22:41:11;54.97;;;26.80;;
45848;SDS011;31567;54.600;9.842;2022-11-15T22:44:50;52.17;;;24.75;;
45848;SDS011;31567;54.600;9.842;2022-11-15T22:48:31;53.08;;;26.13;;
45848;SDS011;31567;54.600;9.842;2022-11-15T22:52:12;59.53;;;25.58;;
45848;SDS011;31567;54.600;9.842;2022-11-15T22:55:53;51.58;;;23.27;;
45848;SDS011;31567;54.600;9.842;2022-11-15T22:59:34;52.63;;;25.27;;
45848;SDS011;31567;54.600;9.842;2022-11-15T23:03:15;47.10;;;22.23;;
45848;SDS011;31567;54.600;9.842;2022-11-15T23:06:55;54.28;;;24.15;;
45848;SDS011;31567;54.600;9.842;2022-11-15T23:10:36;54.58;;;24.40;;
45848;SDS011;31567;54.600;9.842;2022-11-15T23:14:35;49.83;;;22.70;;
45848;SDS011;31567;54.600;9.842;2022-11-15T23:18:14;50.53;;;23.85;;